createdAt,value
2023-02-17T00:01:32.315Z,3.68
2023-02-17T00:04:00.847Z,3.68
2023-02-17T00:06:30.591Z,3.64
2023-02-17T00:09:00.018Z,3.62
2023-02-17T00:11:28.636Z,3.62
2023-02-17T00:13:56.595Z,3.58
2023-02-17T00:16:27.706Z,3.57
2023-02-17T00:18:59.728Z,3.52
2023-02-17T00:21:31.547Z,3.54
2023-02-17T00:23:59.896Z,3.57
2023-02-17T00:26:27.466Z,3.61
2023-02-17T00:28:54.851Z,3.62
2023-02-17T00:31:24.042Z,3.61
2023-02-17T00:33:55.793Z,3.60
2023-02-17T00:36:24.603Z,3.61
2023-02-17T00:38:56.067Z,3.61
2023-02-17T00:41:24.932Z,3.60
2023-02-17T00:43:52.693Z,3.55
2023-02-17T00:46:20.818Z,3.54
2023-02-17T00:48:49.269Z,3.50
2023-02-17T00:51:17.734Z,3.48
2023-02-17T00:53:46.186Z,3.47
2023-02-17T00:56:14.222Z,3.50
2023-02-17T00:58:42.530Z,3.52
2023-02-17T01:01:11.452Z,3.48
2023-02-17T01:03:42.342Z,3.50
2023-02-17T01:06:25.376Z,3.48
2023-02-17T01:08:53.573Z,3.42
2023-02-17T01:11:30.181Z,3.40
2023-02-17T01:14:00.945Z,3.38
2023-02-17T01:16:45.637Z,3.35
2023-02-17T01:19:18.832Z,3.33
2023-02-17T01:21:48.953Z,3.27
2023-02-17T01:24:16.803Z,3.24
2023-02-17T01:26:44.164Z,3.20
2023-02-17T01:29:11.515Z,3.14
2023-02-17T01:31:40.487Z,3.02
2023-02-17T01:34:12.452Z,2.96
2023-02-17T01:36:39.950Z,2.96
2023-02-17T01:39:07.580Z,2.93
2023-02-17T01:41:35.004Z,2.88
2023-02-17T01:44:08.349Z,2.79
2023-02-17T01:46:41.780Z,2.75
2023-02-17T01:49:37.163Z,2.75
2023-02-17T01:52:13.761Z,2.78
2023-02-17T01:55:02.400Z,2.75
2023-02-17T01:57:36.687Z,2.69
2023-02-17T02:00:10.574Z,2.69
2023-02-17T02:02:45.941Z,2.71
2023-02-17T02:05:17.894Z,2.69
2023-02-17T02:07:48.498Z,2.76
2023-02-17T02:10:18.515Z,2.96
2023-02-17T02:12:46.614Z,3.16
2023-02-17T02:15:17.639Z,3.28
2023-02-17T02:18:22.536Z,3.17
2023-02-17T02:21:36.141Z,2.95
2023-02-17T02:24:27.349Z,2.76
2023-02-17T02:27:22.268Z,2.68
2023-02-17T02:30:39.109Z,2.56
2023-02-17T02:33:34.298Z,2.49
2023-02-17T02:36:44.684Z,2.40
2023-02-17T02:39:21.314Z,2.24
2023-02-17T02:41:54.872Z,2.07
2023-02-17T02:44:23.571Z,2.05
2023-02-17T02:46:57.820Z,2.11
2023-02-17T02:49:27.115Z,2.23
2023-02-17T02:52:15.485Z,2.35
2023-02-17T02:55:06.677Z,2.42
2023-02-17T02:57:51.937Z,2.56
2023-02-17T03:00:54.192Z,2.71
2023-02-17T03:03:41.334Z,2.71
2023-02-17T03:06:35.033Z,2.69
2023-02-17T03:09:17.449Z,2.66
2023-02-17T03:11:49.191Z,2.61
2023-02-17T03:14:21.812Z,2.64
2023-02-17T03:16:51.357Z,2.58
2023-02-17T03:19:23.637Z,2.58
2023-02-17T03:22:13.181Z,2.58
2023-02-17T03:24:40.704Z,2.61
2023-02-17T03:27:09.446Z,2.61
2023-02-17T03:29:36.783Z,2.64
2023-02-17T03:32:04.685Z,2.65
2023-02-17T03:34:32.113Z,2.66
2023-02-17T03:36:59.544Z,2.71
2023-02-17T03:39:27.656Z,2.66
2023-02-17T03:41:55.108Z,2.59
2023-02-17T03:44:22.514Z,2.54
2023-02-17T03:46:50.025Z,2.46
2023-02-17T03:49:17.425Z,2.49
2023-02-17T03:51:45.008Z,2.64
2023-02-17T03:54:12.641Z,2.75
2023-02-17T03:56:40.056Z,2.91
2023-02-17T03:59:07.415Z,3.06
2023-02-17T04:01:34.913Z,3.13
2023-02-17T04:04:02.516Z,3.21
2023-02-17T04:06:29.938Z,3.31
2023-02-17T04:08:57.328Z,3.30
2023-02-17T04:11:24.719Z,3.24
2023-02-17T04:13:52.145Z,3.19
2023-02-17T04:16:19.544Z,3.17
2023-02-17T04:18:46.961Z,3.10
2023-02-17T04:21:14.453Z,3.04
2023-02-17T04:23:41.891Z,3.03
2023-02-17T04:26:09.943Z,3.00
2023-02-17T04:28:42.746Z,3.02
2023-02-17T04:31:10.453Z,2.95
2023-02-17T04:33:38.061Z,2.97
2023-02-17T04:36:06.505Z,2.97
2023-02-17T04:38:34.636Z,2.97
2023-02-17T04:41:02.660Z,2.95
2023-02-17T04:43:30.582Z,2.91
2023-02-17T04:45:58.329Z,2.88
2023-02-17T04:48:26.684Z,2.79
2023-02-17T04:50:54.194Z,2.75
2023-02-17T04:53:21.794Z,2.65
2023-02-17T04:55:51.960Z,2.52
2023-02-17T04:58:20.779Z,2.41
2023-02-17T05:00:50.817Z,2.44
2023-02-17T05:03:19.325Z,2.41
2023-02-17T05:05:46.748Z,2.38
2023-02-17T05:08:14.122Z,2.33
2023-02-17T05:10:41.616Z,2.34
2023-02-17T05:13:09.026Z,2.34
2023-02-17T05:15:36.407Z,2.28
2023-02-17T05:18:04.202Z,2.26
2023-02-17T05:20:31.638Z,2.20
2023-02-17T05:22:59.131Z,2.11
2023-02-17T05:25:26.666Z,2.11
2023-02-17T05:27:54.088Z,2.07
2023-02-17T05:30:21.780Z,2.13
2023-02-17T05:32:49.571Z,2.11
2023-02-17T05:35:17.117Z,2.14
2023-02-17T05:37:44.438Z,2.09
2023-02-17T05:40:12.579Z,2.10
2023-02-17T05:42:40.009Z,2.09
2023-02-17T05:45:07.847Z,2.07
2023-02-17T05:47:35.596Z,2.06
2023-02-17T05:50:04.404Z,2.14
2023-02-17T05:52:31.841Z,2.27
2023-02-17T05:54:59.422Z,2.41
2023-02-17T05:57:27.598Z,2.52
2023-02-17T05:59:54.930Z,2.62
2023-02-17T06:02:22.382Z,2.72
2023-02-17T06:04:49.813Z,2.81
2023-02-17T06:07:17.260Z,2.89
2023-02-17T06:09:47.010Z,3.06
2023-02-17T06:12:14.671Z,3.26
2023-02-17T06:14:42.068Z,3.45
2023-02-17T06:17:10.802Z,3.90
2023-02-17T06:19:38.178Z,5.34
2023-02-17T06:22:05.575Z,6.56
2023-02-17T06:24:33.032Z,6.51
2023-02-17T06:27:02.147Z,7.08
2023-02-17T06:29:29.531Z,8.01
2023-02-17T06:31:56.924Z,8.55
2023-02-17T06:34:24.325Z,9.05
2023-02-17T06:36:51.770Z,9.52
2023-02-17T06:39:19.230Z,10.06
2023-02-17T06:41:46.891Z,10.62
2023-02-17T06:44:14.324Z,11.02
2023-02-17T06:46:41.804Z,11.44
2023-02-17T06:49:09.120Z,11.93
2023-02-17T06:51:36.567Z,12.27
2023-02-17T06:54:04.284Z,12.53
2023-02-17T06:56:31.768Z,12.88
2023-02-17T06:58:59.138Z,13.18
2023-02-17T07:01:26.933Z,13.56
2023-02-17T07:03:55.758Z,13.54
2023-02-17T07:06:25.318Z,13.85
2023-02-17T07:08:53.129Z,14.28
2023-02-17T07:11:21.097Z,14.76
2023-02-17T07:13:48.695Z,15.05
2023-02-17T07:16:16.751Z,15.12
2023-02-17T07:18:44.682Z,15.61
2023-02-17T07:21:12.117Z,15.85
2023-02-17T07:23:39.820Z,15.92
2023-02-17T07:26:10.851Z,15.96
2023-02-17T07:28:40.113Z,16.24
2023-02-17T07:31:14.550Z,16.35
2023-02-17T07:33:43.470Z,16.55
2023-02-17T07:36:14.576Z,16.82
2023-02-17T07:38:42.963Z,17.24
2023-02-17T07:41:13.984Z,17.81
2023-02-17T07:43:41.807Z,18.10
2023-02-17T07:46:10.775Z,18.44
2023-02-17T07:48:38.991Z,18.53
2023-02-17T07:51:12.563Z,18.36
2023-02-17T07:53:40.129Z,18.29
2023-02-17T07:56:11.904Z,18.17
2023-02-17T07:58:42.647Z,18.16
2023-02-17T08:01:13.758Z,18.02
2023-02-17T08:03:41.663Z,18.60
2023-02-17T08:06:15.779Z,18.94
2023-02-17T08:09:02.811Z,18.78
2023-02-17T08:11:50.102Z,18.26
2023-02-17T08:14:18.128Z,18.03
2023-02-17T08:16:45.495Z,18.34
2023-02-17T08:19:13.043Z,18.64
2023-02-17T08:21:40.514Z,18.67
2023-02-17T08:24:07.982Z,19.09
2023-02-17T08:26:35.420Z,19.36
2023-02-17T08:29:03.420Z,19.30
2023-02-17T08:31:34.512Z,19.49
2023-02-17T08:34:07.632Z,18.51
2023-02-17T08:36:37.570Z,18.29
2023-02-17T08:39:11.736Z,18.14
2023-02-17T08:41:40.967Z,18.75
2023-02-17T08:44:16.306Z,19.29
2023-02-17T08:46:47.481Z,19.16
2023-02-17T08:49:23.529Z,18.63
2023-02-17T08:51:51.744Z,19.04
2023-02-17T08:54:19.966Z,19.57
2023-02-17T08:56:47.384Z,19.45
2023-02-17T08:59:14.872Z,19.52
2023-02-17T09:01:43.516Z,20.05
2023-02-17T09:04:14.077Z,20.73
2023-02-17T09:06:52.459Z,20.00
2023-02-17T09:09:26.946Z,20.03
2023-02-17T09:11:57.148Z,19.37
2023-02-17T09:14:25.196Z,20.20
2023-02-17T09:16:53.352Z,20.57
2023-02-17T09:19:21.414Z,19.85
2023-02-17T09:21:49.581Z,20.07
2023-02-17T09:24:18.449Z,19.55
2023-02-17T09:26:45.960Z,19.76
2023-02-17T09:29:13.384Z,20.20
2023-02-17T09:31:40.981Z,20.52
2023-02-17T09:34:08.433Z,20.94
2023-02-17T09:36:41.202Z,20.94
2023-02-17T09:39:12.293Z,21.07
2023-02-17T09:41:49.995Z,20.86
2023-02-17T09:44:26.685Z,21.26
2023-02-17T09:47:09.855Z,21.39
2023-02-17T09:49:48.224Z,21.93
2023-02-17T09:52:37.792Z,21.78
2023-02-17T09:55:13.703Z,21.56
2023-02-17T09:58:23.105Z,22.41
2023-02-17T10:00:55.766Z,22.36
2023-02-17T10:03:37.485Z,22.62
2023-02-17T10:06:18.824Z,22.24
2023-02-17T10:09:15.499Z,22.33
2023-02-17T10:12:01.342Z,22.37
2023-02-17T10:14:45.050Z,21.89
2023-02-17T10:17:38.767Z,21.79
2023-02-17T10:20:15.700Z,21.58
2023-02-17T10:22:51.411Z,21.20
2023-02-17T10:25:41.471Z,20.99
2023-02-17T10:28:21.794Z,20.63
2023-02-17T10:31:04.054Z,20.77
2023-02-17T10:33:38.639Z,20.81
2023-02-17T10:36:38.848Z,20.75
2023-02-17T10:39:44.401Z,21.18
2023-02-17T10:42:35.545Z,21.15
2023-02-17T10:45:18.194Z,20.97
2023-02-17T10:47:45.766Z,21.03
2023-02-17T10:50:25.102Z,21.44
2023-02-17T10:52:56.309Z,21.75
2023-02-17T10:55:45.305Z,21.20
2023-02-17T10:58:21.551Z,21.54
2023-02-17T11:00:56.799Z,21.39
2023-02-17T11:03:28.942Z,21.34
2023-02-17T11:06:02.610Z,21.26
2023-02-17T11:08:41.156Z,21.03
2023-02-17T11:11:30.499Z,20.97
2023-02-17T11:14:06.512Z,20.94
2023-02-17T11:17:13.636Z,21.18
2023-02-17T11:19:41.007Z,21.14
2023-02-17T11:22:40.920Z,21.34
2023-02-17T11:25:24.599Z,21.55
2023-02-17T11:27:58.991Z,21.49
2023-02-17T11:30:30.562Z,21.08
2023-02-17T11:32:58.278Z,20.87
2023-02-17T11:35:27.916Z,20.15
2023-02-17T11:38:04.348Z,20.45
2023-02-17T11:40:33.249Z,20.18
2023-02-17T11:43:04.183Z,20.12
2023-02-17T11:45:47.830Z,20.00
2023-02-17T11:48:33.913Z,20.28
2023-02-17T11:51:39.275Z,20.39
2023-02-17T11:54:26.541Z,20.41
2023-02-17T11:57:23.218Z,20.42
2023-02-17T11:59:56.632Z,20.33
2023-02-17T12:02:45.259Z,20.39
2023-02-17T12:05:55.488Z,20.08
2023-02-17T12:09:15.479Z,19.66
2023-02-17T12:12:03.889Z,19.80
2023-02-17T12:15:19.314Z,19.83
2023-02-17T12:18:00.419Z,19.37
2023-02-17T12:20:50.456Z,19.33
2023-02-17T12:23:48.422Z,19.39
2023-02-17T12:26:47.814Z,19.07
2023-02-17T12:29:42.766Z,18.81
2023-02-17T12:32:46.848Z,18.53
2023-02-17T12:35:32.812Z,18.49
2023-02-17T12:38:09.998Z,18.29
2023-02-17T12:41:08.333Z,18.13
2023-02-17T12:43:49.792Z,17.95
2023-02-17T12:46:38.383Z,17.93
2023-02-17T12:49:36.019Z,17.82
2023-02-17T12:52:28.559Z,17.72
2023-02-17T12:55:14.552Z,17.74
2023-02-17T12:57:58.674Z,17.55
2023-02-17T13:00:40.834Z,17.47
2023-02-17T13:03:08.794Z,17.48
2023-02-17T13:05:42.235Z,17.41
2023-02-17T13:08:43.874Z,17.19
2023-02-17T13:11:25.750Z,16.96
2023-02-17T13:13:53.140Z,16.95
2023-02-17T13:16:20.695Z,16.95
2023-02-17T13:18:52.004Z,16.86
2023-02-17T13:21:26.376Z,16.68
2023-02-17T13:24:30.988Z,16.45
2023-02-17T13:27:39.770Z,16.28
2023-02-17T13:30:22.535Z,16.34
2023-02-17T13:33:31.369Z,16.28
2023-02-17T13:35:58.896Z,16.20
2023-02-17T13:38:33.258Z,16.17
2023-02-17T13:41:06.558Z,16.17
2023-02-17T13:43:42.536Z,16.21
2023-02-17T13:46:20.955Z,16.25
2023-02-17T13:49:04.317Z,16.10
2023-02-17T13:51:34.003Z,16.01
2023-02-17T13:54:08.571Z,15.90
2023-02-17T13:56:36.092Z,15.79
2023-02-17T13:59:20.406Z,15.74
2023-02-17T14:01:48.152Z,15.70
2023-02-17T14:04:25.218Z,15.67
2023-02-17T14:06:56.454Z,15.65
2023-02-17T14:09:27.624Z,15.55
2023-02-17T14:11:57.275Z,15.46
2023-02-17T14:14:33.657Z,15.48
2023-02-17T14:17:07.666Z,15.49
2023-02-17T14:19:49.497Z,15.52
2023-02-17T14:22:30.573Z,15.45
2023-02-17T14:25:14.428Z,15.42
2023-02-17T14:27:51.041Z,15.38
2023-02-17T14:30:38.170Z,15.39
2023-02-17T14:33:17.894Z,15.31
2023-02-17T14:35:55.901Z,15.24
2023-02-17T14:38:31.940Z,15.14
2023-02-17T14:41:01.048Z,15.08
2023-02-17T14:43:28.761Z,15.10
2023-02-17T14:45:56.426Z,15.10
2023-02-17T14:48:27.615Z,15.12
2023-02-17T14:50:57.901Z,15.07
2023-02-17T14:53:33.142Z,15.07
2023-02-17T14:56:06.776Z,15.00
2023-02-17T14:58:35.065Z,14.98
2023-02-17T15:01:02.636Z,14.94
2023-02-17T15:03:30.071Z,14.91
2023-02-17T15:05:57.979Z,14.86
2023-02-17T15:08:35.074Z,14.79
2023-02-17T15:11:03.466Z,14.73
2023-02-17T15:13:31.847Z,14.67
2023-02-17T15:16:00.037Z,14.60
2023-02-17T15:18:28.248Z,14.59
2023-02-17T15:20:56.952Z,14.52
2023-02-17T15:23:27.246Z,14.39
2023-02-17T15:25:56.331Z,14.26
2023-02-17T15:28:23.696Z,14.12
2023-02-17T15:30:55.571Z,14.02
2023-02-17T15:33:24.229Z,13.90
2023-02-17T15:35:54.362Z,13.80
2023-02-17T15:38:23.619Z,13.70
2023-02-17T15:40:51.310Z,13.53
2023-02-17T15:43:22.557Z,13.44
2023-02-17T15:45:50.053Z,13.33
2023-02-17T15:48:30.135Z,13.25
2023-02-17T15:50:57.552Z,13.18
2023-02-17T15:53:25.174Z,13.08
2023-02-17T15:55:53.251Z,13.01
2023-02-17T15:58:23.059Z,12.89
2023-02-17T16:00:51.247Z,12.83
2023-02-17T16:03:18.973Z,12.71
2023-02-17T16:05:46.527Z,12.64
2023-02-17T16:08:13.874Z,12.50
2023-02-17T16:10:45.382Z,12.37
2023-02-17T16:13:17.028Z,12.13
2023-02-17T16:15:46.066Z,11.90
2023-02-17T16:18:23.075Z,11.69
2023-02-17T16:20:51.803Z,11.57
2023-02-17T16:23:19.368Z,11.55
2023-02-17T16:25:49.044Z,11.52
2023-02-17T16:28:21.161Z,11.38
2023-02-17T16:30:51.018Z,11.31
2023-02-17T16:33:19.099Z,11.23
2023-02-17T16:35:47.015Z,11.19
2023-02-17T16:38:22.733Z,11.07
2023-02-17T16:40:52.848Z,11.03
2023-02-17T16:43:26.897Z,10.91
2023-02-17T16:46:01.178Z,10.91
2023-02-17T16:48:33.068Z,10.89
2023-02-17T16:51:00.566Z,10.85
2023-02-17T16:53:28.287Z,10.69
2023-02-17T16:55:56.323Z,10.51
2023-02-17T16:58:26.385Z,10.33
2023-02-17T17:00:56.137Z,10.21
2023-02-17T17:03:23.692Z,10.00
2023-02-17T17:05:52.855Z,9.87
2023-02-17T17:08:21.946Z,9.73
2023-02-17T17:10:49.826Z,9.63
2023-02-17T17:13:17.327Z,9.53
2023-02-17T17:15:46.331Z,9.45
2023-02-17T17:18:21.664Z,9.36
2023-02-17T17:20:50.165Z,9.28
2023-02-17T17:23:18.786Z,9.22
2023-02-17T17:25:46.822Z,9.14
2023-02-17T17:28:17.637Z,9.10
2023-02-17T17:30:45.965Z,9.12
2023-02-17T17:33:13.366Z,9.15
2023-02-17T17:35:40.700Z,9.21
2023-02-17T17:38:09.782Z,9.22
2023-02-17T17:40:53.225Z,9.22
2023-02-17T17:43:26.296Z,9.24
2023-02-17T17:45:54.962Z,9.28
2023-02-17T17:48:22.432Z,9.32
2023-02-17T17:50:50.011Z,9.38
2023-02-17T17:53:17.451Z,9.41
2023-02-17T17:55:47.009Z,9.35
2023-02-17T17:58:16.213Z,9.34
2023-02-17T18:00:43.600Z,9.34
2023-02-17T18:03:10.918Z,9.20
2023-02-17T18:05:38.390Z,9.10
2023-02-17T18:08:07.607Z,9.00
2023-02-17T18:10:35.389Z,8.85
2023-02-17T18:13:03.087Z,8.81
2023-02-17T18:15:30.531Z,8.81
2023-02-17T18:17:57.948Z,8.76
2023-02-17T18:20:25.492Z,8.70
2023-02-17T18:22:52.872Z,8.64
2023-02-17T18:25:20.330Z,8.56
2023-02-17T18:27:48.097Z,8.46
2023-02-17T18:30:19.792Z,8.42
2023-02-17T18:32:48.117Z,8.35
2023-02-17T18:35:15.978Z,8.32
2023-02-17T18:37:45.082Z,8.26
2023-02-17T18:40:16.876Z,8.21
2023-02-17T18:42:48.365Z,8.21
2023-02-17T18:45:17.270Z,8.08
2023-02-17T18:47:45.489Z,8.04
2023-02-17T18:50:14.825Z,8.05
2023-02-17T18:52:43.689Z,8.01
2023-02-17T18:55:11.898Z,7.90
2023-02-17T18:57:39.660Z,7.86
2023-02-17T19:00:09.633Z,7.80
2023-02-17T19:02:38.218Z,7.76
2023-02-17T19:05:08.151Z,7.73
2023-02-17T19:07:35.805Z,7.73
2023-02-17T19:10:05.344Z,7.71
2023-02-17T19:12:34.207Z,7.71
2023-02-17T19:15:01.789Z,7.70
2023-02-17T19:17:29.172Z,7.71
2023-02-17T19:19:56.666Z,7.70
2023-02-17T19:22:24.053Z,7.67
2023-02-17T19:24:54.418Z,7.71
2023-02-17T19:27:21.881Z,7.66
2023-02-17T19:29:49.322Z,7.60
2023-02-17T19:32:16.727Z,7.57
2023-02-17T19:34:44.135Z,7.47
2023-02-17T19:37:11.552Z,7.40
2023-02-17T19:39:39.013Z,7.39
2023-02-17T19:42:06.461Z,7.38
2023-02-17T19:44:33.823Z,7.36
2023-02-17T19:47:01.286Z,7.36
2023-02-17T19:49:28.752Z,7.32
2023-02-17T19:51:56.143Z,7.26
2023-02-17T19:54:24.455Z,7.26
2023-02-17T19:56:52.259Z,7.23
2023-02-17T19:59:19.861Z,7.28
2023-02-17T20:01:47.235Z,7.35
2023-02-17T20:04:14.871Z,7.38
2023-02-17T20:06:46.275Z,7.43
2023-02-17T20:09:23.455Z,7.45
2023-02-17T20:11:53.151Z,7.50
2023-02-17T20:14:22.022Z,7.46
2023-02-17T20:16:50.455Z,7.49
2023-02-17T20:19:17.847Z,7.46
2023-02-17T20:21:45.876Z,7.52
2023-02-17T20:24:14.528Z,7.46
2023-02-17T20:26:47.098Z,7.35
2023-02-17T20:29:14.627Z,7.18
2023-02-17T20:31:43.083Z,7.01
2023-02-17T20:34:35.534Z,6.83
2023-02-17T20:37:03.966Z,6.76
2023-02-17T20:39:31.234Z,6.73
2023-02-17T20:41:59.667Z,6.56
2023-02-17T20:44:28.171Z,6.51
2023-02-17T20:46:56.004Z,6.57
2023-02-17T20:49:23.930Z,6.81
2023-02-17T20:51:51.509Z,7.05
2023-02-17T20:54:19.051Z,7.26
2023-02-17T20:56:47.697Z,7.43
2023-02-17T20:59:16.013Z,7.50
2023-02-17T21:01:43.351Z,7.53
2023-02-17T21:04:11.291Z,7.40
2023-02-17T21:06:41.258Z,7.09
2023-02-17T21:09:18.561Z,6.84
2023-02-17T21:11:47.818Z,6.66
2023-02-17T21:14:15.808Z,6.36
2023-02-17T21:16:43.267Z,6.13
2023-02-17T21:19:10.711Z,5.94
2023-02-17T21:21:39.424Z,5.77
2023-02-17T21:24:07.136Z,5.64
2023-02-17T21:26:34.698Z,5.53
2023-02-17T21:29:02.346Z,5.44
2023-02-17T21:31:30.007Z,5.30
2023-02-17T21:33:59.297Z,5.20
2023-02-17T21:36:29.059Z,5.12
2023-02-17T21:38:57.222Z,5.16
2023-02-17T21:41:27.668Z,5.30
2023-02-17T21:44:13.607Z,5.46
2023-02-17T21:46:43.003Z,5.70
2023-02-17T21:49:12.618Z,5.98
2023-02-17T21:51:40.848Z,6.11
2023-02-17T21:54:09.732Z,6.18
2023-02-17T21:56:37.903Z,6.12
2023-02-17T21:59:05.738Z,6.08
2023-02-17T22:01:33.760Z,6.13
2023-02-17T22:04:01.228Z,6.21
2023-02-17T22:06:33.510Z,6.29
2023-02-17T22:09:01.276Z,6.42
2023-02-17T22:11:33.035Z,6.50
2023-02-17T22:14:05.612Z,6.71
2023-02-17T22:16:35.776Z,6.78
2023-02-17T22:19:06.792Z,6.70
2023-02-17T22:21:35.030Z,6.56
2023-02-17T22:24:03.025Z,6.51
2023-02-17T22:26:31.122Z,6.44
2023-02-17T22:28:58.896Z,6.40
2023-02-17T22:31:29.902Z,6.34
2023-02-17T22:34:01.209Z,6.28
2023-02-17T22:36:33.493Z,6.18
2023-02-17T22:39:02.270Z,6.18
2023-02-17T22:41:29.955Z,6.11
2023-02-17T22:43:57.331Z,6.05
2023-02-17T22:46:27.078Z,5.98
2023-02-17T22:48:57.116Z,5.97
2023-02-17T22:51:34.574Z,5.95
2023-02-17T22:54:03.315Z,5.97
2023-02-17T22:56:31.461Z,6.08
2023-02-17T22:59:01.535Z,6.26
2023-02-17T23:01:31.576Z,6.43
2023-02-17T23:03:59.735Z,6.47
2023-02-17T23:06:30.256Z,6.39
2023-02-17T23:08:59.134Z,6.32
2023-02-17T23:11:53.750Z,6.16
2023-02-17T23:14:38.960Z,6.08
2023-02-17T23:17:13.105Z,6.05
2023-02-17T23:19:42.406Z,6.19
2023-02-17T23:22:16.184Z,6.36
2023-02-17T23:24:48.070Z,6.50
2023-02-17T23:27:15.848Z,6.74
2023-02-17T23:29:43.214Z,6.98
2023-02-17T23:32:10.767Z,7.14
2023-02-17T23:34:38.709Z,7.26
2023-02-17T23:37:06.001Z,7.38
2023-02-17T23:39:38.020Z,7.45
2023-02-17T23:42:05.774Z,7.46
2023-02-17T23:44:33.143Z,7.42
2023-02-17T23:47:00.518Z,7.33
2023-02-17T23:49:27.852Z,7.18
2023-02-17T23:51:55.213Z,7.01
2023-02-17T23:54:24.422Z,6.78
2023-02-17T23:56:51.916Z,6.47
2023-02-17T23:59:19.335Z,6.18
